This is the latest recevied weather packets stored in our database for station/object OM8AGG-10. If no packets are shown the sender has not sent any weather packets the latest 10 day(s).
| Time | Temp. | Humidity | Pressure | Rain* | Wind** | Luminosity | Snow |
|---|---|---|---|---|---|---|---|
| 1788301666 | 16.67° C | 61% | 1022.1 hPa | - | - | - | - |
| 1788299865 | 16.11° C | 64% | 1021.8 hPa | - | - | - | - |
| 1788298065 | 16.11° C | 61% | 1021.9 hPa | - | - | - | - |
| 1788297165 | 17.22° C | 59% | 1021.6 hPa | - | - | - | - |
| 1788296265 | 17.22° C | 58% | 1021.4 hPa | - | - | - | - |
| 1788294464 | 17.78° C | 56% | 1021.1 hPa | - | - | - | - |
| 1788293564 | 18.33° C | 55% | 1021.1 hPa | - | - | - | - |
| 1788292664 | 18.33° C | 52% | 1021 hPa | - | - | - | - |
| 1788291764 | 18.89° C | 51% | 1020.9 hPa | - | - | - | - |
| 1788289964 | 18.89° C | 52% | 1020.7 hPa | - | - | - | - |
| 1788289064 | 19.44° C | 50% | 1020.7 hPa | - | - | - | - |
| 1788287263 | 20° C | 48% | 1020.3 hPa | - | - | - | - |
| 1788286363 | 21.11° C | 46% | 1020.1 hPa | - | - | - | - |
| 1788285463 | 21.67° C | 44% | 1019.6 hPa | - | - | - | - |
| 1788284563 | 22.22° C | 43% | 1019.3 hPa | - | - | - | - |
| 1788283663 | 23.33° C | 43% | 1019.3 hPa | - | - | - | - |
| 1788282763 | 23.89° C | 42% | 1018.9 hPa | - | - | - | - |
| 1788281862 | 24.44° C | 42% | 1018.6 hPa | - | - | - | - |
| 1788280062 | 26.11° C | 37% | 1017.9 hPa | - | - | - | - |
| 1788279162 | 27.22° C | 34% | 1017.7 hPa | - | - | - | - |
| 1788278262 | 27.22° C | 34% | 1017.5 hPa | - | - | - | - |
| 1788277362 | 26.67° C | 33% | 1017.5 hPa | - | - | - | - |
| 1788276462 | 27.22° C | 30% | 1017.4 hPa | - | - | - | - |
| 1788275562 | 27.22° C | 27% | 1017.3 hPa | - | - | - | - |
| 1788274661 | 27.78° C | 26% | 1017.3 hPa | - | - | - | - |
* Rain since midnight (hover to see other rain measurements)
** Current wind speed in m/s (hover to see current wind gust speed)